Time;durP1;ratioP1;P1;durP2;ratioP2;P2;SDS_P1;SDS_P2;PMS_P1;PMS_P2;Temp;Humidity;BMP_temperature;BMP_pressure;BME280_temperature;BME280_humidity;BME280_pressure;Samples;Min_cycle;Max_cycle;Signal;HPM_P1;HPM_P2
2021/07/26 00:02:26;;;;;;;;;;;;;;;15.93;70.40;99988.34;5055201;28;900;-63
2021/07/26 00:04:53;;;;;;;;;;;;;;;15.90;70.52;99983.66;5055069;28;849;-63
2021/07/26 00:07:19;;;;;;;;;;;;;;;15.86;70.90;99986.53;5055322;28;1958;-64
2021/07/26 00:09:46;;;;;;;;;;;;;;;15.83;70.65;99986.59;5055021;28;822;-63
2021/07/26 00:12:12;;;;;;;;;;;;;;;15.80;70.90;99988.25;5055012;28;842;-64
2021/07/26 00:14:39;;;;;;;;;;;;;;;15.85;70.69;99984.97;5059290;28;1221;-63
2021/07/26 00:17:04;;;;;;;;;;;;;;;15.93;70.21;99985.56;5074846;28;873;-63
2021/07/26 00:19:31;;;;;;;;;;;;;;;15.94;70.10;99981.56;5075033;28;830;-63
2021/07/26 00:21:58;;;;;;;;;;;;;;;15.90;70.48;99984.44;5074764;28;842;-64
2021/07/26 00:24:25;;;;;;;;;;;;;;;15.86;70.63;99985.75;5074587;28;849;-63
2021/07/26 00:26:51;;;;;;;;;;;;;;;15.78;70.93;99979.53;5074540;28;1918;-63
2021/07/26 00:29:18;;;;;;;;;;;;;;;15.68;71.06;99981.34;5074605;28;854;-63
2021/07/26 00:31:45;;;;;;;;;;;;;;;15.54;71.27;99973.31;5074753;28;838;-63
2021/07/26 00:34:18;;;;;;;;;;;;;;;15.41;71.79;99978.00;5074486;28;823;-63
2021/07/26 00:36:47;;;;;;;;;;;;;;;15.30;72.09;99967.84;5074457;28;877;-63
2021/07/26 00:39:15;;;;;;;;;;;;;;;15.30;72.42;99973.44;5074426;28;852;-64
2021/07/26 00:41:42;;;;;;;;;;;;;;;15.38;72.19;99976.03;5074306;28;842;-63
2021/07/26 00:44:09;;;;;;;;;;;;;;;15.59;71.61;99964.44;5074331;28;816;-63
2021/07/26 00:46:35;;;;;;;;;;;;;;;15.76;71.02;99972.84;5074250;28;1886;-63
2021/07/26 00:49:04;;;;;;;;;;;;;;;15.82;70.85;99976.69;5074252;28;826;-63
2021/07/26 00:51:31;;;;;;;;;;;;;;;15.80;70.67;99967.97;5074196;28;810;-63
2021/07/26 00:53:58;;;;;;;;;;;;;;;15.75;70.80;99965.72;5074158;28;854;-63
2021/07/26 00:56:24;;;;;;;;;;;;;;;15.67;71.01;99965.84;5074094;28;818;-63
2021/07/26 00:58:50;;;;;;;;;;;;;;;15.55;71.25;99963.72;5073967;28;858;-63
2021/07/26 01:01:17;;;;;;;;;;;;;;;15.44;71.45;99969.53;5056173;28;1642;-63
2021/07/26 01:03:44;;;;;;;;;;;;;;;15.32;71.93;99953.50;5072993;28;869;-63
2021/07/26 01:06:12;;;;;;;;;;;;;;;15.27;72.31;99954.78;5073869;28;1890;-64
2021/07/26 01:08:38;;;;;;;;;;;;;;;15.28;72.41;99961.16;5073821;28;846;-63
2021/07/26 01:11:06;;;;;;;;;;;;;;;15.26;72.63;99950.44;5073868;28;933;-64
2021/07/26 01:13:35;;;;;;;;;;;;;;;15.26;72.62;99958.03;5074108;28;937;-63
2021/07/26 01:16:03;;;;;;;;;;;;;;;15.29;72.56;99955.13;5073461;28;1200;-63
2021/07/26 01:18:33;;;;;;;;;;;;;;;15.30;72.70;99958.72;5073732;28;881;-63
2021/07/26 01:21:01;;;;;;;;;;;;;;;15.26;72.77;99953.22;5073710;28;802;-63
2021/07/26 01:23:29;;;;;;;;;;;;;;;15.24;72.88;99954.88;5073788;28;877;-63
2021/07/26 01:25:56;;;;;;;;;;;;;;;15.25;72.89;99946.06;5073466;28;1913;-63
2021/07/26 01:28:24;;;;;;;;;;;;;;;15.25;72.86;99946.06;5073607;28;806;-63
2021/07/26 01:30:51;;;;;;;;;;;;;;;15.18;72.67;99946.25;5073431;28;869;-63
2021/07/26 01:33:18;;;;;;;;;;;;;;;15.03;72.96;99942.97;5073604;28;902;-63
2021/07/26 01:35:46;;;;;;;;;;;;;;;14.81;73.29;99939.84;5073406;28;806;-63
2021/07/26 01:38:12;;;;;;;;;;;;;;;14.58;74.01;99951.81;5073301;28;790;-63
2021/07/26 01:40:40;;;;;;;;;;;;;;;14.48;74.13;99942.41;5073217;28;826;-63
2021/07/26 01:43:09;;;;;;;;;;;;;;;14.41;74.38;99945.34;5073320;28;850;-63
2021/07/26 01:45:39;;;;;;;;;;;;;;;14.23;74.52;99933.75;5073154;28;827;-63
2021/07/26 01:48:14;;;;;;;;;;;;;;;14.13;75.33;99937.53;5073085;28;1886;-63
2021/07/26 01:50:46;;;;;;;;;;;;;;;14.27;75.46;99928.91;5073070;28;846;-63
2021/07/26 01:53:13;;;;;;;;;;;;;;;14.39;75.42;99931.09;5072905;28;838;-63
2021/07/26 01:55:40;;;;;;;;;;;;;;;14.47;75.46;99926.19;5073049;28;822;-63
2021/07/26 01:58:07;;;;;;;;;;;;;;;14.57;75.59;99927.22;5072964;28;842;-63
2021/07/26 02:00:34;;;;;;;;;;;;;;;14.62;75.16;99933.06;5072908;28;849;-63
2021/07/26 02:03:00;;;;;;;;;;;;;;;14.55;75.44;99929.59;5072869;28;810;-63
2021/07/26 02:05:28;;;;;;;;;;;;;;;14.43;75.61;99929.03;5072842;28;951;-63
2021/07/26 02:07:54;;;;;;;;;;;;;;;14.26;75.56;99927.34;5072657;28;1898;-63
2021/07/26 02:10:21;;;;;;;;;;;;;;;14.16;75.81;99929.09;5072696;28;858;-63
2021/07/26 02:12:48;;;;;;;;;;;;;;;14.27;76.15;99929.72;5072579;28;958;-63
2021/07/26 02:15:15;;;;;;;;;;;;;;;14.38;75.78;99926.75;5072272;28;1240;-63
2021/07/26 02:17:42;;;;;;;;;;;;;;;14.27;75.56;99932.50;5072760;28;802;-63
2021/07/26 02:20:09;;;;;;;;;;;;;;;14.09;76.15;99932.78;5072594;28;807;-63
2021/07/26 02:22:35;;;;;;;;;;;;;;;13.92;76.63;99936.66;5072324;28;838;-63
2021/07/26 02:25:02;;;;;;;;;;;;;;;13.91;77.00;99939.84;5072486;28;802;-63
2021/07/26 02:27:29;;;;;;;;;;;;;;;14.00;77.16;99937.34;5072364;28;1909;-63
2021/07/26 02:29:56;;;;;;;;;;;;;;;14.13;77.07;99941.09;5072427;28;807;-63
2021/07/26 02:32:22;;;;;;;;;;;;;;;14.21;76.56;99948.09;5072371;28;838;-63
2021/07/26 02:34:49;;;;;;;;;;;;;;;14.28;76.62;99942.41;5072771;28;866;-64
2021/07/26 02:37:16;;;;;;;;;;;;;;;14.41;76.37;99948.13;5072387;28;822;-63
2021/07/26 02:39:43;;;;;;;;;;;;;;;14.44;76.25;99943.69;5054290;28;1394;-63
2021/07/26 02:42:09;;;;;;;;;;;;;;;14.43;75.91;99936.59;5072383;28;869;-63
2021/07/26 02:44:35;;;;;;;;;;;;;;;14.36;75.93;99942.25;5071951;28;916;-63
2021/07/26 02:47:02;;;;;;;;;;;;;;;14.27;76.02;99940.03;5072236;28;1929;-63
2021/07/26 02:49:28;;;;;;;;;;;;;;;14.32;75.94;99949.88;5071959;28;865;-63
2021/07/26 02:51:55;;;;;;;;;;;;;;;14.33;75.81;99949.47;5071827;28;868;-63
2021/07/26 02:54:23;;;;;;;;;;;;;;;14.38;75.61;99946.22;5071990;28;869;-63
2021/07/26 02:56:49;;;;;;;;;;;;;;;14.42;75.61;99952.50;5071846;28;814;-63
2021/07/26 02:59:16;;;;;;;;;;;;;;;14.40;75.69;99956.88;5072036;28;865;-63
2021/07/26 03:01:43;;;;;;;;;;;;;;;14.33;75.77;99954.25;5071788;28;814;-63
2021/07/26 03:04:10;;;;;;;;;;;;;;;14.26;75.85;99960.72;5071754;28;877;-63
2021/07/26 03:06:37;;;;;;;;;;;;;;;14.21;76.25;99953.66;5071620;28;1890;-63
2021/07/26 03:09:03;;;;;;;;;;;;;;;14.19;76.41;99955.25;5071886;28;862;-63
2021/07/26 03:11:30;;;;;;;;;;;;;;;14.19;76.82;99956.06;5071591;28;799;-63
2021/07/26 03:13:57;;;;;;;;;;;;;;;14.21;76.86;99952.84;5071942;28;1024;-63
2021/07/26 03:16:24;;;;;;;;;;;;;;;14.20;76.70;99957.63;5071453;28;1380;-63
2021/07/26 03:18:51;;;;;;;;;;;;;;;14.18;76.82;99953.72;5071584;28;843;-63
2021/07/26 03:21:17;;;;;;;;;;;;;;;14.18;77.01;99962.03;5071403;28;900;-63
2021/07/26 03:23:43;;;;;;;;;;;;;;;14.20;77.15;99963.19;5071775;28;834;-63
2021/07/26 03:26:10;;;;;;;;;;;;;;;14.22;77.21;99973.88;5071282;28;1985;-63
2021/07/26 03:28:37;;;;;;;;;;;;;;;14.26;77.04;99961.50;5071575;28;885;-63
2021/07/26 03:31:04;;;;;;;;;;;;;;;14.29;76.86;99973.75;5071411;28;862;-63
2021/07/26 03:33:31;;;;;;;;;;;;;;;14.29;76.71;99976.53;5071441;28;866;-63
2021/07/26 03:35:58;;;;;;;;;;;;;;;14.29;76.48;99984.88;5071685;28;886;-63
2021/07/26 03:38:25;;;;;;;;;;;;;;;14.30;76.31;99989.25;5071371;28;798;-63
2021/07/26 03:40:52;;;;;;;;;;;;;;;14.35;76.34;99991.53;5071444;28;889;-63
2021/07/26 03:43:19;;;;;;;;;;;;;;;14.43;75.92;99992.97;5071368;28;852;-63
2021/07/26 03:45:46;;;;;;;;;;;;;;;14.79;75.31;99988.81;5071466;28;1955;-63
2021/07/26 03:48:12;;;;;;;;;;;;;;;15.56;72.95;99979.22;5071240;28;850;-63
2021/07/26 03:50:40;;;;;;;;;;;;;;;16.15;70.33;99991.41;5071284;28;848;-63
2021/07/26 03:53:06;;;;;;;;;;;;;;;16.25;69.59;99978.41;5071219;28;897;-63
2021/07/26 03:55:34;;;;;;;;;;;;;;;16.19;69.57;99977.38;5071279;28;814;-63
2021/07/26 03:58:03;;;;;;;;;;;;;;;16.11;69.88;99988.72;5071246;28;822;-63
2021/07/26 04:00:30;;;;;;;;;;;;;;;16.00;69.85;99981.81;5071148;28;834;-63
2021/07/26 04:03:06;;;;;;;;;;;;;;;15.84;70.58;99988.97;5071148;28;857;-63
2021/07/26 04:05:39;;;;;;;;;;;;;;;15.72;71.01;99992.44;5071155;28;818;-63
2021/07/26 04:08:13;;;;;;;;;;;;;;;15.66;71.09;99988.56;5071082;28;1882;-64
2021/07/26 04:10:43;;;;;;;;;;;;;;;15.61;71.62;99989.84;5071088;28;889;-63
2021/07/26 04:13:11;;;;;;;;;;;;;;;15.59;71.92;99994.28;5071311;28;895;-63
2021/07/26 04:15:38;;;;;;;;;;;;;;;15.63;71.97;99997.78;5071087;28;1315;-63
2021/07/26 04:18:05;;;;;;;;;;;;;;;15.74;71.63;99995.56;5071121;28;881;-63
2021/07/26 04:20:32;;;;;;;;;;;;;;;15.89;71.54;99987.66;5070953;28;827;-63
2021/07/26 04:22:59;;;;;;;;;;;;;;;16.10;71.05;99981.56;5071213;28;818;-63
2021/07/26 04:25:26;;;;;;;;;;;;;;;16.47;70.28;99987.00;5071153;28;857;-63
2021/07/26 04:27:54;;;;;;;;;;;;;;;16.79;69.55;99990.94;5071176;28;2001;-63
2021/07/26 04:30:20;;;;;;;;;;;;;;;16.96;69.33;99992.50;5071150;28;817;-64
2021/07/26 04:32:47;;;;;;;;;;;;;;;17.07;69.21;99994.97;5071189;28;819;-63
2021/07/26 04:35:15;;;;;;;;;;;;;;;17.22;68.87;99990.56;5071099;28;955;-63
2021/07/26 04:37:42;;;;;;;;;;;;;;;17.35;68.30;99988.56;5071136;28;944;-63
2021/07/26 04:40:10;;;;;;;;;;;;;;;17.43;67.97;99991.94;5074613;28;861;-63
2021/07/26 04:42:37;;;;;;;;;;;;;;;17.51;67.51;99998.88;5074548;28;881;-63
2021/07/26 04:45:05;;;;;;;;;;;;;;;17.61;66.90;99994.19;5074532;28;845;-63
2021/07/26 04:47:32;;;;;;;;;;;;;;;17.70;66.62;99991.50;5074464;28;1890;-63
2021/07/26 04:49:58;;;;;;;;;;;;;;;17.87;66.33;99995.00;5074288;28;842;-63
2021/07/26 04:52:25;;;;;;;;;;;;;;;18.07;65.59;100008.75;5074105;28;882;-63
2021/07/26 04:54:52;;;;;;;;;;;;;;;18.23;64.82;100009.84;5056202;28;1399;-63
2021/07/26 04:57:18;;;;;;;;;;;;;;;18.31;64.63;100011.19;5074081;28;889;-63
2021/07/26 04:59:45;;;;;;;;;;;;;;;18.39;64.23;100009.69;5074420;28;846;-63
2021/07/26 05:02:12;;;;;;;;;;;;;;;18.51;63.47;100014.47;5074037;28;831;-64
2021/07/26 05:04:39;;;;;;;;;;;;;;;18.63;63.13;100012.13;5074048;28;830;-63
2021/07/26 05:07:07;;;;;;;;;;;;;;;18.84;62.79;100014.19;5073991;28;1973;-63
2021/07/26 05:14:47;;;;;;;;;;;;;;;19.62;61.50;100015.31;5468300;22;1510;-63
2021/07/26 05:17:22;;;;;;;;;;;;;;;19.95;60.79;100020.44;5053957;28;838;-63
2021/07/26 05:19:49;;;;;;;;;;;;;;;20.20;60.28;100027.84;5054031;28;885;-63
2021/07/26 05:22:16;;;;;;;;;;;;;;;20.52;59.61;100028.53;5053935;28;900;-63
2021/07/26 05:24:43;;;;;;;;;;;;;;;21.07;57.44;100033.44;5053984;28;811;-63
2021/07/26 05:27:09;;;;;;;;;;;;;;;21.64;56.50;100030.84;5053315;28;1981;-63
2021/07/26 05:29:36;;;;;;;;;;;;;;;22.27;55.11;100039.50;5053840;28;1197;-63
2021/07/26 05:32:03;;;;;;;;;;;;;;;22.87;53.25;100031.28;5053509;28;1421;-64
2021/07/26 05:34:30;;;;;;;;;;;;;;;23.26;52.20;100029.25;5053558;28;1209;-63
2021/07/26 05:36:57;;;;;;;;;;;;;;;23.78;51.25;100029.63;5053723;28;845;-63
2021/07/26 05:39:25;;;;;;;;;;;;;;;24.37;50.38;100034.34;5053678;28;771;-63
2021/07/26 05:41:53;;;;;;;;;;;;;;;25.19;48.94;100030.69;5053607;28;894;-63
2021/07/26 05:44:20;;;;;;;;;;;;;;;26.44;46.29;100028.34;5053316;28;881;-63
2021/07/26 05:46:47;;;;;;;;;;;;;;;27.71;43.41;100035.38;5053312;28;1955;-63
2021/07/26 05:49:14;;;;;;;;;;;;;;;28.66;41.93;100025.94;5053269;28;861;-63
2021/07/26 05:51:41;;;;;;;;;;;;;;;29.38;40.17;100033.81;5053328;28;857;-63
2021/07/26 05:54:07;;;;;;;;;;;;;;;30.04;38.92;100030.94;5053372;28;830;-63
2021/07/26 05:56:40;;;;;;;;;;;;;;;30.20;37.90;100038.56;5053351;28;811;-63
2021/07/26 05:59:07;;;;;;;;;;;;;;;30.11;37.74;100033.97;5052989;28;858;-63
2021/07/26 06:01:46;;;;;;;;;;;;;;;30.32;37.26;100042.84;5052952;28;893;-63
2021/07/26 06:04:13;;;;;;;;;;;;;;;30.57;36.59;100045.66;5052847;28;908;-63
2021/07/26 06:06:43;;;;;;;;;;;;;;;31.04;36.13;100033.91;5052633;28;1893;-63
2021/07/26 06:09:10;;;;;;;;;;;;;;;31.32;35.03;100033.53;5053196;28;798;-64
2021/07/26 06:11:40;;;;;;;;;;;;;;;31.95;34.19;100025.47;5053138;28;865;-63
2021/07/26 06:14:07;;;;;;;;;;;;;;;32.82;33.38;100021.19;5052562;28;1229;-61
2021/07/26 06:16:39;;;;;;;;;;;;;;;33.64;31.94;100017.50;5052656;28;901;-60
2021/07/26 06:19:09;;;;;;;;;;;;;;;34.24;30.90;100007.84;5052580;28;930;-63
2021/07/26 06:21:42;;;;;;;;;;;;;;;34.23;30.93;100009.19;5052530;28;870;-62
2021/07/26 06:24:10;;;;;;;;;;;;;;;34.41;30.69;100018.06;5052585;28;834;-62
2021/07/26 06:26:36;;;;;;;;;;;;;;;34.62;30.57;100013.00;5052335;28;1917;-63
2021/07/26 06:29:03;;;;;;;;;;;;;;;34.96;29.92;100015.63;5052378;28;909;-62
2021/07/26 06:31:32;;;;;;;;;;;;;;;35.07;29.32;100005.91;5034525;28;838;-62
2021/07/26 06:33:59;;;;;;;;;;;;;;;35.41;27.72;100018.44;5052328;28;866;-63
2021/07/26 06:36:26;;;;;;;;;;;;;;;35.07;27.24;100020.25;5052180;28;811;-62
2021/07/26 06:38:52;;;;;;;;;;;;;;;34.95;27.97;100025.59;5034378;28;1514;-62
2021/07/26 06:41:19;;;;;;;;;;;;;;;35.02;28.03;100023.34;5052188;28;826;-62
2021/07/26 06:43:45;;;;;;;;;;;;;;;34.96;27.87;100026.38;5051979;28;909;-62
2021/07/26 06:46:12;;;;;;;;;;;;;;;35.00;28.15;100021.03;5052027;28;1889;-62
2021/07/26 06:48:39;;;;;;;;;;;;;;;34.93;28.24;100025.41;5052083;28;869;-62
2021/07/26 06:51:06;;;;;;;;;;;;;;;34.69;27.58;100023.75;5051911;28;937;-62
2021/07/26 06:53:35;;;;;;;;;;;;;;;34.73;28.23;100024.16;5034066;28;1267;-62
2021/07/26 06:56:07;;;;;;;;;;;;;;;35.17;27.91;100029.13;5051782;28;989;-62
2021/07/26 06:58:37;;;;;;;;;;;;;;;35.96;26.64;100024.41;5051760;28;1146;-62
2021/07/26 07:01:05;;;;;;;;;;;;;;;36.62;25.18;100021.81;5051212;28;819;-61
2021/07/26 07:03:31;;;;;;;;;;;;;;;36.37;24.07;100024.56;5051738;28;870;-61
2021/07/26 07:06:03;;;;;;;;;;;;;;;36.07;23.24;100025.38;5051629;28;1913;-61
2021/07/26 07:08:30;;;;;;;;;;;;;;;36.22;23.22;100034.00;5051713;28;810;-61
2021/07/26 07:11:07;;;;;;;;;;;;;;;36.79;22.50;100033.44;5051653;28;922;-61
2021/07/26 07:13:34;;;;;;;;;;;;;;;37.13;22.42;100022.75;5051892;28;923;-61
2021/07/26 07:16:01;;;;;;;;;;;;;;;36.99;22.15;100028.72;5051713;28;1204;-61
2021/07/26 07:18:28;;;;;;;;;;;;;;;36.87;22.70;100036.31;5051870;28;876;-62
2021/07/26 07:20:55;;;;;;;;;;;;;;;37.41;22.58;100033.13;5051926;28;865;-60
2021/07/26 07:23:21;;;;;;;;;;;;;;;37.90;21.78;100033.72;5051889;28;806;-62
2021/07/26 07:25:48;;;;;;;;;;;;;;;38.31;21.32;100031.41;5052289;28;814;-61
2021/07/26 07:28:15;;;;;;;;;;;;;;;38.26;20.89;100029.53;5051797;28;1981;-61
2021/07/26 07:30:42;;;;;;;;;;;;;;;38.26;20.43;100030.31;5052019;28;782;-62
2021/07/26 07:33:09;;;;;;;;;;;;;;;38.40;20.52;100034.38;5051438;28;831;-62
2021/07/26 07:35:35;;;;;;;;;;;;;;;38.64;20.62;100028.38;5051597;28;833;-62
2021/07/26 07:38:03;;;;;;;;;;;;;;;38.19;21.41;100031.91;5033634;28;1289;-61
2021/07/26 07:40:30;;;;;;;;;;;;;;;37.65;21.31;100028.75;5051431;28;845;-61
2021/07/26 07:42:56;;;;;;;;;;;;;;;37.65;22.47;100033.75;5051744;28;846;-61
2021/07/26 07:45:23;;;;;;;;;;;;;;;37.91;21.43;100036.00;5051269;28;815;-61
2021/07/26 07:47:55;;;;;;;;;;;;;;;38.21;21.59;100034.19;5051347;28;1949;-62
2021/07/26 07:50:22;;;;;;;;;;;;;;;38.68;21.24;100029.44;5051548;28;862;-61
2021/07/26 07:52:49;;;;;;;;;;;;;;;38.69;21.19;100031.00;5051578;28;838;-61
2021/07/26 07:55:14;;;;;;;;;;;;;;;38.70;20.91;100035.41;5051198;28;815;-61
2021/07/26 07:57:41;;;;;;;;;;;;;;;38.89;20.55;100042.69;5051340;28;908;-61
2021/07/26 08:00:12;;;;;;;;;;;;;;;37.86;19.90;100044.91;5051420;28;857;-62
2021/07/26 08:02:39;;;;;;;;;;;;;;;37.02;21.22;100046.19;5051301;28;929;-62
2021/07/26 08:05:06;;;;;;;;;;;;;;;37.29;22.01;100055.09;5051092;28;944;-62
2021/07/26 08:07:33;;;;;;;;;;;;;;;37.85;21.29;100049.13;5050988;28;1894;-62
2021/07/26 08:10:00;;;;;;;;;;;;;;;38.28;20.27;100053.56;5051291;28;1028;-62
2021/07/26 08:12:26;;;;;;;;;;;;;;;38.49;19.39;100043.72;5052406;28;897;-61
2021/07/26 08:14:53;;;;;;;;;;;;;;;38.48;19.12;100042.19;5054929;28;1342;-62
2021/07/26 08:17:20;;;;;;;;;;;;;;;38.23;19.41;100043.03;5055194;28;826;-62
2021/07/26 08:19:47;;;;;;;;;;;;;;;38.31;18.64;100037.19;5054891;28;869;-62
2021/07/26 08:22:13;;;;;;;;;;;;;;;38.20;19.19;100039.22;5054782;28;839;-62
2021/07/26 08:24:42;;;;;;;;;;;;;;;38.52;18.78;100039.69;5054806;28;802;-60
2021/07/26 08:27:07;;;;;;;;;;;;;;;38.54;19.27;100037.72;5036846;28;1914;-60
2021/07/26 08:29:34;;;;;;;;;;;;;;;38.24;18.20;100040.91;5054692;28;814;-61
2021/07/26 08:32:01;;;;;;;;;;;;;;;37.83;18.51;100034.53;5054699;28;1043;-61
2021/07/26 08:34:27;;;;;;;;;;;;;;;37.66;18.72;100035.25;5054580;28;850;-61
2021/07/26 08:36:55;;;;;;;;;;;;;;;37.53;18.28;100031.28;5054547;28;815;-62
2021/07/26 08:39:22;;;;;;;;;;;;;;;37.51;18.65;100028.25;5054553;28;842;-62
2021/07/26 08:41:49;;;;;;;;;;;;;;;37.49;19.63;100030.16;5054304;28;857;-62
2021/07/26 08:44:16;;;;;;;;;;;;;;;37.77;18.98;100026.91;5054461;28;819;-61
2021/07/26 08:46:43;;;;;;;;;;;;;;;37.46;19.32;100026.34;5054291;28;1959;-61
2021/07/26 08:49:12;;;;;;;;;;;;;;;37.64;19.35;100021.47;5054195;28;910;-62
2021/07/26 08:51:42;;;;;;;;;;;;;;;37.95;18.56;100018.28;5054161;28;929;-62
2021/07/26 08:54:10;;;;;;;;;;;;;;;37.15;18.54;100015.06;5054255;28;822;-62
2021/07/26 08:56:37;;;;;;;;;;;;;;;36.90;18.73;100022.84;5054400;28;881;-62
2021/07/26 08:59:02;;;;;;;;;;;;;;;37.19;19.00;100023.25;5054138;28;795;-62
2021/07/26 09:01:30;;;;;;;;;;;;;;;37.40;19.01;100020.06;5054059;28;928;-61
2021/07/26 09:03:57;;;;;;;;;;;;;;;36.79;19.51;100024.81;5054193;28;943;-61
2021/07/26 09:06:24;;;;;;;;;;;;;;;36.65;19.10;100028.53;5054103;28;1957;-62
2021/07/26 09:08:53;;;;;;;;;;;;;;;36.99;19.50;100033.72;5053944;28;823;-62
2021/07/26 09:11:19;;;;;;;;;;;;;;;36.98;19.24;100018.56;5053734;28;869;-61
2021/07/26 09:13:46;;;;;;;;;;;;;;;36.89;19.81;100022.06;5054202;28;916;-62
2021/07/26 09:16:25;;;;;;;;;;;;;;;36.35;18.99;100019.38;5053490;28;1471;-62
2021/07/26 09:19:07;;;;;;;;;;;;;;;36.25;19.34;100017.69;5054000;28;826;-61
2021/07/26 09:21:52;;;;;;;;;;;;;;;36.28;20.26;100020.16;5053760;28;893;-61
2021/07/26 09:24:26;;;;;;;;;;;;;;;36.57;19.85;100019.88;5052861;28;790;-61
2021/07/26 09:26:55;;;;;;;;;;;;;;;36.24;20.05;100010.41;5053513;28;1902;-61
2021/07/26 09:29:26;;;;;;;;;;;;;;;36.03;20.82;100010.59;5053886;28;837;-61
2021/07/26 09:31:59;;;;;;;;;;;;;;;35.82;19.85;100002.19;5053589;28;878;-62
2021/07/26 09:34:27;;;;;;;;;;;;;;;35.83;20.08;100001.63;5053325;28;851;-62
2021/07/26 09:36:54;;;;;;;;;;;;;;;35.97;20.98;99997.19;5053245;28;954;-61
2021/07/26 09:39:27;;;;;;;;;;;;;;;36.09;20.27;99996.78;5053324;28;814;-61
2021/07/26 09:41:56;;;;;;;;;;;;;;;35.93;20.86;99999.69;5053501;28;810;-62
2021/07/26 09:44:26;;;;;;;;;;;;;;;35.81;20.78;100006.41;5035319;28;1340;-62
2021/07/26 09:46:54;;;;;;;;;;;;;;;35.66;20.52;99995.69;5053682;28;1882;-61
2021/07/26 09:49:21;;;;;;;;;;;;;;;35.24;21.28;99991.03;5053096;28;922;-62
2021/07/26 09:52:04;;;;;;;;;;;;;;;34.91;21.05;99984.22;5053144;28;822;-62
2021/07/26 09:54:44;;;;;;;;;;;;;;;34.77;20.66;99980.75;5053139;28;873;-61
2021/07/26 09:57:20;;;;;;;;;;;;;;;34.74;20.60;99973.28;5053169;28;907;-62
2021/07/26 09:59:47;;;;;;;;;;;;;;;34.48;22.56;99975.09;5053177;28;826;-61
2021/07/26 10:02:15;;;;;;;;;;;;;;;34.04;22.64;99974.25;5052894;28;897;-62
2021/07/26 10:04:46;;;;;;;;;;;;;;;33.92;22.83;99980.25;5053267;28;866;-63
2021/07/26 10:07:16;;;;;;;;;;;;;;;33.70;22.92;99972.28;5052860;28;1905;-62
2021/07/26 10:09:45;;;;;;;;;;;;;;;33.39;23.39;99986.31;5052719;28;861;-62
2021/07/26 10:12:20;;;;;;;;;;;;;;;33.11;23.23;99976.31;5052768;28;953;-62
2021/07/26 10:14:50;;;;;;;;;;;;;;;33.21;22.52;99978.72;5052825;28;1394;-62
2021/07/26 10:17:17;;;;;;;;;;;;;;;33.43;23.15;99977.38;5052655;28;826;-62
2021/07/26 10:19:45;;;;;;;;;;;;;;;33.55;22.52;99970.03;5035193;28;823;-62
2021/07/26 10:22:15;;;;;;;;;;;;;;;33.71;23.67;99971.72;5052545;28;886;-61
2021/07/26 10:24:50;;;;;;;;;;;;;;;33.65;23.32;99971.09;5052573;28;811;-62
2021/07/26 10:27:27;;;;;;;;;;;;;;;33.90;22.18;99971.47;5052276;28;1981;-62
2021/07/26 10:29:55;;;;;;;;;;;;;;;33.86;21.53;99971.03;5053328;28;827;-62
2021/07/26 10:32:31;;;;;;;;;;;;;;;33.68;21.49;99974.94;5052622;28;881;-62
2021/07/26 10:35:01;;;;;;;;;;;;;;;33.80;22.76;99970.47;5051985;28;881;-62
2021/07/26 10:37:40;;;;;;;;;;;;;;;33.60;21.96;99971.25;5051794;28;1019;-63
2021/07/26 10:40:23;;;;;;;;;;;;;;;33.52;22.22;99963.34;5052073;28;807;-62
2021/07/26 10:42:50;;;;;;;;;;;;;;;33.60;22.04;99959.78;5052106;28;875;-62
2021/07/26 10:45:33;;;;;;;;;;;;;;;33.41;22.98;99962.84;5052109;28;920;-62
2021/07/26 10:48:17;;;;;;;;;;;;;;;33.60;22.90;99962.66;5052004;28;1922;-62
2021/07/26 10:50:47;;;;;;;;;;;;;;;34.00;22.74;99950.91;5052116;28;853;-61
2021/07/26 10:53:33;;;;;;;;;;;;;;;34.13;24.29;99954.44;5051843;28;936;-63
2021/07/26 10:56:07;;;;;;;;;;;;;;;34.38;24.66;99945.38;5052103;28;794;-62
2021/07/26 10:58:43;;;;;;;;;;;;;;;34.05;25.40;99955.69;5051794;28;849;-62
2021/07/26 11:01:22;;;;;;;;;;;;;;;33.73;25.88;99945.34;5051883;28;818;-62
2021/07/26 11:03:54;;;;;;;;;;;;;;;33.53;25.78;99958.38;5051710;28;930;-62
2021/07/26 11:06:37;;;;;;;;;;;;;;;33.60;25.45;99957.69;5051801;28;1882;-62
2021/07/26 11:09:22;;;;;;;;;;;;;;;33.63;26.21;99953.72;5051640;28;885;-63
2021/07/26 11:11:50;;;;;;;;;;;;;;;33.73;26.42;99939.63;5051684;28;837;-62
2021/07/26 11:14:17;;;;;;;;;;;;;;;33.45;24.72;99952.56;5051694;28;1355;-62
2021/07/26 11:17:03;;;;;;;;;;;;;;;33.33;24.64;99949.22;5033779;28;850;-62
2021/07/26 11:19:33;;;;;;;;;;;;;;;33.55;25.55;99953.59;5051592;28;831;-62
2021/07/26 11:22:00;;;;;;;;;;;;;;;33.69;25.25;99959.28;5051575;28;826;-62
2021/07/26 11:24:43;;;;;;;;;;;;;;;33.76;25.65;99955.72;5051471;28;818;-62
2021/07/26 11:27:30;;;;;;;;;;;;;;;33.81;24.67;99954.78;5051500;28;1977;-62
2021/07/26 11:29:58;;;;;;;;;;;;;;;33.87;24.63;99955.41;5050228;28;1181;-62
2021/07/26 11:32:25;;;;;;;;;;;;;;;33.94;24.73;99954.66;5051471;28;818;-62
2021/07/26 11:34:56;;;;;;;;;;;;;;;34.12;26.03;99946.41;5051663;28;917;-63
2021/07/26 11:37:35;;;;;;;;;;;;;;;34.08;25.87;99938.13;5051324;28;933;-63
2021/07/26 11:40:04;;;;;;;;;;;;;;;33.92;25.87;99951.59;5033597;28;877;-62
2021/07/26 11:42:35;;;;;;;;;;;;;;;34.09;27.16;99944.63;5051390;28;795;-62
2021/07/26 11:45:02;;;;;;;;;;;;;;;34.32;25.22;99950.50;5051378;28;870;-61
2021/07/26 11:47:31;;;;;;;;;;;;;;;34.27;24.90;99960.03;5052791;28;1893;-62
2021/07/26 11:49:59;;;;;;;;;;;;;;;34.27;24.68;99955.09;5055539;28;818;-63
2021/07/26 11:52:26;;;;;;;;;;;;;;;34.38;24.48;99948.25;5055239;28;915;-62
2021/07/26 11:54:52;;;;;;;;;;;;;;;34.72;24.39;99948.03;5055326;28;791;-62
2021/07/26 11:57:19;;;;;;;;;;;;;;;35.20;24.41;99953.31;5055337;28;873;-62
2021/07/26 11:59:50;;;;;;;;;;;;;;;35.46;24.20;99952.16;5055218;28;871;-62
2021/07/26 12:02:33;;;;;;;;;;;;;;;35.38;24.58;99960.78;5055205;28;854;-61
2021/07/26 12:05:04;;;;;;;;;;;;;;;35.48;24.20;99958.09;5055166;28;1178;-62
2021/07/26 12:07:41;;;;;;;;;;;;;;;35.79;24.18;99955.25;5054967;28;1871;-63
2021/07/26 12:10:09;;;;;;;;;;;;;;;35.79;22.87;99952.38;5054940;28;941;-63
2021/07/26 12:12:37;;;;;;;;;;;;;;;35.49;23.60;99958.88;5054853;28;1052;-63
2021/07/26 12:15:23;;;;;;;;;;;;;;;35.15;24.51;99955.03;5054607;28;1261;-60
2021/07/26 12:18:08;;;;;;;;;;;;;;;35.23;23.90;99954.25;5054821;28;890;-62
2021/07/26 12:20:40;;;;;;;;;;;;;;;35.30;24.62;99951.41;5054755;28;1077;-62
2021/07/26 12:23:25;;;;;;;;;;;;;;;35.26;24.48;99948.13;5054835;28;852;-61
2021/07/26 12:25:53;;;;;;;;;;;;;;;35.21;24.62;99948.31;5036857;28;1185;-62
2021/07/26 12:28:20;;;;;;;;;;;;;;;35.30;24.43;99950.63;5054771;28;2055;-63
2021/07/26 12:30:51;;;;;;;;;;;;;;;35.41;24.80;99946.63;5054549;28;847;-63
2021/07/26 12:33:28;;;;;;;;;;;;;;;35.11;24.41;99939.47;5054797;28;826;-63
2021/07/26 12:36:11;;;;;;;;;;;;;;;35.10;25.48;99940.81;5055029;28;751;-62
2021/07/26 12:38:39;;;;;;;;;;;;;;;35.54;24.88;99941.44;5054497;28;883;-63
2021/07/26 12:41:09;;;;;;;;;;;;;;;35.48;24.60;99940.09;5054801;28;834;-63
2021/07/26 12:43:42;;;;;;;;;;;;;;;35.64;25.01;99935.91;5054668;28;826;-62
2021/07/26 12:46:09;;;;;;;;;;;;;;;35.67;25.00;99934.75;5054248;28;1955;-62
2021/07/26 12:48:37;;;;;;;;;;;;;;;35.70;24.72;99933.59;5054534;28;980;-63
2021/07/26 12:51:07;;;;;;;;;;;;;;;35.53;24.75;99939.16;5054366;28;912;-62
2021/07/26 12:53:34;;;;;;;;;;;;;;;35.56;24.85;99943.72;5054261;28;842;-64
2021/07/26 12:56:01;;;;;;;;;;;;;;;35.56;24.93;99947.38;5054223;28;806;-62
2021/07/26 12:58:30;;;;;;;;;;;;;;;35.69;24.48;99939.91;5053141;28;882;-62
2021/07/26 13:00:58;;;;;;;;;;;;;;;35.88;24.42;99942.38;5054109;28;886;-63
2021/07/26 13:03:25;;;;;;;;;;;;;;;35.56;23.60;99944.50;5054133;28;910;-62
2021/07/26 13:05:52;;;;;;;;;;;;;;;35.38;24.34;99948.53;5053855;28;822;-62
2021/07/26 13:08:19;;;;;;;;;;;;;;;35.47;24.26;99950.84;5054027;28;1890;-63
2021/07/26 13:10:47;;;;;;;;;;;;;;;35.89;23.52;99949.66;5053930;28;830;-62
2021/07/26 13:13:15;;;;;;;;;;;;;;;36.08;23.92;99946.34;5053833;28;1044;-61
2021/07/26 13:15:43;;;;;;;;;;;;;;;36.05;23.69;99944.66;5053553;28;1276;-62